createdAt,value
2018-02-19T00:01:08.342Z,0
2018-02-19T00:02:17.612Z,0
2018-02-19T00:03:26.875Z,0
2018-02-19T00:04:35.830Z,0
2018-02-19T00:05:45.067Z,0
2018-02-19T00:06:54.559Z,0
2018-02-19T00:08:03.805Z,0
2018-02-19T00:09:13.333Z,0
2018-02-19T00:10:22.996Z,0
2018-02-19T00:11:31.677Z,0
2018-02-19T00:12:40.638Z,0
2018-02-19T00:13:50.109Z,0
2018-02-19T00:14:58.799Z,0
2018-02-19T00:16:08.324Z,0
2018-02-19T00:17:17.580Z,0
2018-02-19T00:18:26.834Z,0
2018-02-19T00:19:35.786Z,0
2018-02-19T00:20:45.023Z,0
2018-02-19T00:21:54.815Z,0
2018-02-19T00:23:04.129Z,0
2018-02-19T00:24:12.824Z,0
2018-02-19T00:25:21.799Z,0
2018-02-19T00:26:30.740Z,0
2018-02-19T00:27:40.019Z,0
2018-02-19T00:28:49.288Z,0
2018-02-19T00:29:58.537Z,0
2018-02-19T00:31:07.491Z,0
2018-02-19T00:32:16.548Z,0
2018-02-19T00:33:25.502Z,0
2018-02-19T00:34:34.249Z,0
2018-02-19T00:35:43.565Z,0
2018-02-19T00:36:52.544Z,0
2018-02-19T00:38:01.858Z,0
2018-02-19T00:39:11.101Z,0
2018-02-19T00:40:20.350Z,0
2018-02-19T00:41:29.094Z,0
2018-02-19T00:42:38.616Z,0
2018-02-19T00:43:47.304Z,0
2018-02-19T00:44:56.524Z,0
2018-02-19T00:46:06.278Z,0
2018-02-19T00:47:15.236Z,0
2018-02-19T00:48:24.718Z,0
2018-02-19T00:49:34.212Z,0
2018-02-19T00:50:43.693Z,0
2018-02-19T00:51:52.481Z,0
2018-02-19T00:53:01.257Z,0
2018-02-19T00:54:10.556Z,0
2018-02-19T00:55:19.507Z,0
2018-02-19T00:56:28.457Z,0
2018-02-19T00:57:37.186Z,0
2018-02-19T00:58:46.169Z,0
2018-02-19T00:59:55.383Z,0
2018-02-19T01:01:04.630Z,0
2018-02-19T01:02:13.835Z,0
2018-02-19T01:03:22.822Z,0
2018-02-19T01:04:31.819Z,0
2018-02-19T01:05:40.806Z,0
2018-02-19T01:06:50.046Z,0
2018-02-19T01:07:59.057Z,0
2018-02-19T01:09:08.577Z,0
2018-02-19T01:10:17.282Z,0
2018-02-19T01:11:26.236Z,0
2018-02-19T01:12:35.249Z,0
2018-02-19T01:13:44.206Z,0
2018-02-19T01:14:53.446Z,0
2018-02-19T01:16:02.183Z,0
2018-02-19T01:17:11.444Z,0
2018-02-19T01:18:20.648Z,0
2018-02-19T01:19:29.891Z,0
2018-02-19T01:20:38.910Z,0
2018-02-19T01:21:48.395Z,0
2018-02-19T01:22:57.947Z,0
2018-02-19T01:24:07.201Z,0
2018-02-19T01:25:16.223Z,0
2018-02-19T01:26:25.432Z,0
2018-02-19T01:27:34.702Z,0
2018-02-19T01:28:44.236Z,0
2018-02-19T01:29:52.933Z,0
2018-02-19T01:31:02.183Z,0
2018-02-19T01:32:11.145Z,0
2018-02-19T01:33:20.709Z,0
2018-02-19T01:34:29.936Z,0
2018-02-19T01:35:38.912Z,0
2018-02-19T01:36:48.121Z,0
2018-02-19T01:37:56.805Z,0
2018-02-19T01:39:05.749Z,0
2018-02-19T01:40:14.729Z,0
2018-02-19T01:41:23.696Z,0
2018-02-19T01:42:33.160Z,0
2018-02-19T01:43:42.364Z,0
2018-02-19T01:44:51.580Z,0
2018-02-19T01:46:00.269Z,0
2018-02-19T01:47:09.298Z,0
2018-02-19T01:48:18.500Z,0
2018-02-19T01:49:27.465Z,0
2018-02-19T01:50:36.732Z,0
2018-02-19T01:51:45.675Z,0
2018-02-19T01:52:54.929Z,0
2018-02-19T01:54:04.147Z,0
2018-02-19T01:55:12.853Z,0
2018-02-19T01:56:21.807Z,0
2018-02-19T01:57:30.760Z,0
2018-02-19T01:58:40.250Z,0
2018-02-19T01:59:49.476Z,0
2018-02-19T02:00:58.705Z,0
2018-02-19T02:02:07.641Z,0
2018-02-19T02:03:16.607Z,0
2018-02-19T02:04:25.297Z,0
2018-02-19T02:05:34.551Z,0
2018-02-19T02:06:43.792Z,0
2018-02-19T02:07:52.478Z,0
2018-02-19T02:09:01.974Z,0
2018-02-19T02:10:11.446Z,0
2018-02-19T02:11:20.142Z,0
2018-02-19T02:12:29.350Z,0
2018-02-19T02:13:38.580Z,0
2018-02-19T02:14:47.764Z,0
2018-02-19T02:15:56.620Z,0
2018-02-19T02:17:05.601Z,0
2018-02-19T02:18:14.647Z,0
2018-02-19T02:19:23.853Z,0
2018-02-19T02:20:33.069Z,0
2018-02-19T02:21:42.141Z,0
2018-02-19T02:22:51.366Z,0
2018-02-19T02:24:00.314Z,0
2018-02-19T02:25:09.513Z,0
2018-02-19T02:26:19.403Z,0
2018-02-19T02:27:28.365Z,0
2018-02-19T02:28:37.843Z,0
2018-02-19T02:29:46.846Z,0
2018-02-19T02:30:55.821Z,0
2018-02-19T02:32:05.155Z,0
2018-02-19T02:33:14.617Z,0
2018-02-19T02:34:23.299Z,0
2018-02-19T02:35:32.277Z,0
2018-02-19T02:36:41.524Z,0
2018-02-19T02:37:51.009Z,0
2018-02-19T02:39:00.217Z,0
2018-02-19T02:40:10.159Z,0
2018-02-19T02:41:19.152Z,0
2018-02-19T02:42:28.450Z,0
2018-02-19T02:43:37.680Z,0
2018-02-19T02:44:47.236Z,0
2018-02-19T02:45:56.325Z,0
2018-02-19T02:47:05.070Z,0
2018-02-19T02:48:14.565Z,0
2018-02-19T02:49:23.584Z,0
2018-02-19T02:50:32.845Z,0
2018-02-19T02:51:42.414Z,0
2018-02-19T02:52:51.419Z,0
2018-02-19T02:54:00.696Z,0
2018-02-19T02:55:09.739Z,0
2018-02-19T02:56:18.760Z,0
2018-02-19T02:57:28.290Z,0
2018-02-19T02:58:37.068Z,0
2018-02-19T02:59:46.072Z,0
2018-02-19T03:00:55.015Z,0
2018-02-19T03:02:04.513Z,0
2018-02-19T03:03:13.821Z,0
2018-02-19T03:04:23.144Z,0
2018-02-19T03:05:32.420Z,0
2018-02-19T03:06:41.691Z,0
2018-02-19T03:07:50.664Z,0
2018-02-19T03:08:59.625Z,0
2018-02-19T03:10:08.872Z,0
2018-02-19T03:11:18.192Z,0
2018-02-19T03:12:27.183Z,0
2018-02-19T03:13:36.690Z,0
2018-02-19T03:14:45.689Z,0
2018-02-19T03:15:54.642Z,0
2018-02-19T03:17:03.880Z,0
2018-02-19T03:18:13.456Z,0
2018-02-19T03:19:22.932Z,0
2018-02-19T03:20:32.404Z,0
2018-02-19T03:21:41.611Z,0
2018-02-19T03:22:50.892Z,0
2018-02-19T03:23:59.584Z,0
2018-02-19T03:25:08.299Z,0
2018-02-19T03:26:17.783Z,0
2018-02-19T03:27:26.765Z,0
2018-02-19T03:28:35.733Z,0
2018-02-19T03:29:44.962Z,0
2018-02-19T03:30:54.222Z,0
2018-02-19T03:32:03.502Z,0
2018-02-19T03:33:12.737Z,0
2018-02-19T03:34:21.940Z,0
2018-02-19T03:35:31.779Z,0
2018-02-19T03:36:41.264Z,0
2018-02-19T03:37:50.215Z,0
2018-02-19T03:38:59.703Z,0
2018-02-19T03:40:08.653Z,0
2018-02-19T03:41:17.633Z,0
2018-02-19T03:42:27.366Z,0
2018-02-19T03:43:36.840Z,0
2018-02-19T03:44:46.120Z,0
2018-02-19T03:45:55.080Z,0
2018-02-19T03:47:04.817Z,0
2018-02-19T03:48:14.549Z,0
2018-02-19T03:49:23.222Z,0
2018-02-19T03:50:32.500Z,0
2018-02-19T03:51:41.462Z,0
2018-02-19T03:52:50.435Z,0
2018-02-19T03:53:59.109Z,0
2018-02-19T03:55:07.803Z,0
2018-02-19T03:56:16.490Z,0
2018-02-19T03:57:25.469Z,0
2018-02-19T03:58:34.682Z,0
2018-02-19T03:59:43.637Z,0
2018-02-19T04:00:53.204Z,0
2018-02-19T04:02:02.698Z,0
2018-02-19T04:03:11.986Z,0
2018-02-19T04:04:21.496Z,0
2018-02-19T04:05:30.512Z,0
2018-02-19T04:06:39.473Z,0
2018-02-19T04:07:48.450Z,0
2018-02-19T04:08:57.673Z,0
2018-02-19T04:10:06.928Z,0
2018-02-19T04:11:15.695Z,0
2018-02-19T04:12:24.671Z,0
2018-02-19T04:13:33.964Z,0
2018-02-19T04:14:42.979Z,0
2018-02-19T04:15:51.940Z,0
2018-02-19T04:17:01.154Z,0
2018-02-19T04:18:10.164Z,0
2018-02-19T04:19:19.129Z,0
2018-02-19T04:20:28.385Z,0
2018-02-19T04:21:37.627Z,0
2018-02-19T04:22:47.415Z,0
2018-02-19T04:23:56.622Z,0
2018-02-19T04:25:05.853Z,0
2018-02-19T04:26:15.341Z,0
2018-02-19T04:27:24.403Z,0
2018-02-19T04:28:33.192Z,0
2018-02-19T04:29:42.704Z,0
2018-02-19T04:30:51.403Z,0
2018-02-19T04:32:00.426Z,0
2018-02-19T04:33:09.258Z,0
2018-02-19T04:34:18.482Z,0
2018-02-19T04:35:27.433Z,0
2018-02-19T04:36:37.036Z,0
2018-02-19T04:37:45.829Z,0
2018-02-19T04:38:54.602Z,0
2018-02-19T04:40:03.682Z,0
2018-02-19T04:41:12.841Z,0
2018-02-19T04:42:21.569Z,0
2018-02-19T04:43:30.854Z,0
2018-02-19T04:44:39.843Z,0
2018-02-19T04:45:49.368Z,0
2018-02-19T04:46:58.628Z,0
2018-02-19T04:48:08.285Z,0
2018-02-19T04:49:17.367Z,0
2018-02-19T04:50:26.421Z,0
2018-02-19T04:51:35.468Z,0
2018-02-19T04:52:44.257Z,0
2018-02-19T04:53:52.981Z,0
2018-02-19T04:55:01.966Z,0
2018-02-19T04:56:10.687Z,0
2018-02-19T04:57:19.377Z,0
2018-02-19T04:58:28.402Z,0
2018-02-19T04:59:37.108Z,0
2018-02-19T05:00:46.380Z,0
2018-02-19T05:01:55.363Z,0
2018-02-19T05:03:04.401Z,0
2018-02-19T05:04:13.935Z,0
2018-02-19T05:05:22.921Z,0
2018-02-19T05:06:31.611Z,0
2018-02-19T05:07:40.560Z,0
2018-02-19T05:08:49.774Z,0
2018-02-19T05:09:58.742Z,0
2018-02-19T05:11:07.717Z,0
2018-02-19T05:12:16.691Z,0
2018-02-19T05:13:25.635Z,0
2018-02-19T05:14:34.860Z,0
2018-02-19T05:15:43.812Z,0
2018-02-19T05:16:53.320Z,0
2018-02-19T05:18:02.277Z,0
2018-02-19T05:19:11.219Z,0
2018-02-19T05:20:19.909Z,0
2018-02-19T05:21:28.918Z,0
2018-02-19T05:22:37.910Z,0
2018-02-19T05:23:47.390Z,0
2018-02-19T05:24:56.426Z,0
2018-02-19T05:26:05.651Z,0
2018-02-19T05:27:14.357Z,0
2018-02-19T05:28:23.850Z,0
2018-02-19T05:29:32.578Z,0
2018-02-19T05:30:41.803Z,0
2018-02-19T05:31:51.545Z,0
2018-02-19T05:33:00.751Z,0
2018-02-19T05:34:09.696Z,0
2018-02-19T05:35:18.900Z,0
2018-02-19T05:36:28.144Z,0
2018-02-19T05:37:37.697Z,0
2018-02-19T05:38:46.898Z,0
2018-02-19T05:39:55.863Z,0
2018-02-19T05:41:05.161Z,0
2018-02-19T05:42:14.430Z,0
2018-02-19T05:43:23.937Z,0
2018-02-19T05:44:33.202Z,0
2018-02-19T05:45:42.439Z,0
2018-02-19T05:46:51.662Z,0
2018-02-19T05:48:00.688Z,0
2018-02-19T05:49:09.400Z,0
2018-02-19T05:50:18.680Z,0
2018-02-19T05:51:27.922Z,0
2018-02-19T05:52:36.924Z,0
2018-02-19T05:53:46.240Z,0
2018-02-19T05:54:55.493Z,0
2018-02-19T05:56:04.772Z,0
2018-02-19T05:57:13.489Z,0
2018-02-19T05:58:22.508Z,0
2018-02-19T05:59:31.737Z,0
2018-02-19T06:00:41.038Z,0
2018-02-19T06:01:50.007Z,0
2018-02-19T06:02:59.232Z,0
2018-02-19T06:04:08.573Z,0
2018-02-19T06:05:17.824Z,0
2018-02-19T06:06:26.834Z,0
2018-02-19T06:07:35.898Z,0
2018-02-19T06:08:45.143Z,0
2018-02-19T06:09:53.848Z,0
2018-02-19T06:11:03.075Z,0
2018-02-19T06:12:11.799Z,0
2018-02-19T06:13:21.409Z,0
2018-02-19T06:14:30.628Z,0
2018-02-19T06:15:39.353Z,0
2018-02-19T06:16:48.169Z,0
2018-02-19T06:17:57.161Z,4
2018-02-19T06:19:05.931Z,4
2018-02-19T06:20:14.933Z,4
2018-02-19T06:21:23.791Z,4
2018-02-19T06:22:33.125Z,8
2018-02-19T06:23:42.412Z,4
2018-02-19T06:24:51.467Z,8
2018-02-19T06:26:00.899Z,8
2018-02-19T06:27:10.225Z,8
2018-02-19T06:28:19.533Z,12
2018-02-19T06:29:29.065Z,12
2018-02-19T06:30:38.753Z,16
2018-02-19T06:31:47.499Z,20
2018-02-19T06:32:56.465Z,20
2018-02-19T06:34:05.960Z,24
2018-02-19T06:35:14.927Z,24
2018-02-19T06:36:24.200Z,32
2018-02-19T06:37:33.157Z,32
2018-02-19T06:38:41.839Z,32
2018-02-19T06:39:50.857Z,36
2018-02-19T06:40:59.817Z,36
2018-02-19T06:42:08.780Z,40
2018-02-19T06:43:18.064Z,40
2018-02-19T06:44:27.287Z,44
2018-02-19T06:45:36.793Z,52
2018-02-19T06:46:45.756Z,60
2018-02-19T06:47:54.771Z,68
2018-02-19T06:49:04.027Z,68
2018-02-19T06:50:13.268Z,80
2018-02-19T06:51:21.982Z,88
2018-02-19T06:52:31.209Z,92
2018-02-19T06:53:40.172Z,100
2018-02-19T06:54:49.183Z,108
2018-02-19T06:55:58.174Z,112
2018-02-19T06:57:06.965Z,120
2018-02-19T06:58:16.217Z,124
2018-02-19T06:59:25.162Z,128
2018-02-19T07:00:34.649Z,132
2018-02-19T07:01:43.897Z,140
2018-02-19T07:02:53.156Z,148
2018-02-19T07:04:02.914Z,160
2018-02-19T07:05:12.402Z,172
2018-02-19T07:06:21.648Z,184
2018-02-19T07:07:30.626Z,208
2018-02-19T07:08:39.576Z,216
2018-02-19T07:09:48.864Z,236
2018-02-19T07:10:57.599Z,252
2018-02-19T07:12:06.592Z,272
2018-02-19T07:13:15.574Z,284
2018-02-19T07:14:24.788Z,292
2018-02-19T07:15:34.096Z,296
2018-02-19T07:16:43.071Z,292
2018-02-19T07:17:51.807Z,288
2018-02-19T07:19:00.752Z,288
2018-02-19T07:20:09.783Z,288
2018-02-19T07:21:19.574Z,296
2018-02-19T07:22:28.289Z,312
2018-02-19T07:23:37.303Z,328
2018-02-19T07:24:46.012Z,340
2018-02-19T07:25:55.497Z,352
2018-02-19T07:27:04.462Z,356
2018-02-19T07:28:13.169Z,364
2018-02-19T07:29:21.868Z,376
2018-02-19T07:30:30.862Z,400
2018-02-19T07:31:39.644Z,428
2018-02-19T07:32:48.379Z,480
2018-02-19T07:33:58.220Z,536
2018-02-19T07:35:07.430Z,592
2018-02-19T07:36:16.405Z,640
2018-02-19T07:37:25.645Z,672
2018-02-19T07:38:35.117Z,696
2018-02-19T07:39:44.614Z,704
2018-02-19T07:40:53.896Z,688
2018-02-19T07:42:02.869Z,688
2018-02-19T07:43:11.845Z,724
2018-02-19T07:44:21.134Z,744
2018-02-19T07:45:30.072Z,744
2018-02-19T07:46:39.960Z,748
2018-02-19T07:47:48.926Z,760
2018-02-19T07:48:57.985Z,768
2018-02-19T07:50:07.091Z,764
2018-02-19T07:51:16.131Z,788
2018-02-19T07:52:25.734Z,844
2018-02-19T07:53:35.032Z,896
2018-02-19T07:54:43.707Z,940
2018-02-19T07:55:52.727Z,948
2018-02-19T07:57:01.693Z,944
2018-02-19T07:58:11.053Z,960
2018-02-19T07:59:20.172Z,1016
2018-02-19T08:00:29.127Z,1080
2018-02-19T08:01:38.429Z,1116
2018-02-19T08:02:47.492Z,1124
2018-02-19T08:03:57.007Z,1136
2018-02-19T08:05:05.974Z,1156
2018-02-19T08:06:15.898Z,1164
2018-02-19T08:07:25.681Z,1156
2018-02-19T08:08:35.330Z,1144
2018-02-19T08:09:44.540Z,1120
2018-02-19T08:10:54.034Z,1120
2018-02-19T08:12:02.795Z,1168
2018-02-19T08:13:11.603Z,1216
2018-02-19T08:14:21.092Z,1204
2018-02-19T08:15:31.337Z,1184
2018-02-19T08:16:41.101Z,1184
2018-02-19T08:17:49.874Z,1204
2018-02-19T08:18:59.006Z,1208
2018-02-19T08:20:08.961Z,1220
2018-02-19T08:21:18.391Z,1184
2018-02-19T08:22:27.633Z,1136
2018-02-19T08:23:36.852Z,1092
2018-02-19T08:24:46.428Z,1076
2018-02-19T08:25:55.691Z,1064
2018-02-19T08:27:04.967Z,1072
2018-02-19T08:28:14.230Z,1076
2018-02-19T08:29:23.481Z,1028
2018-02-19T08:30:32.741Z,1016
2018-02-19T08:31:41.707Z,1016
2018-02-19T08:32:50.665Z,1036
2018-02-19T08:33:59.389Z,1000
2018-02-19T08:35:08.639Z,996
2018-02-19T08:36:17.602Z,1040
2018-02-19T08:37:26.293Z,1076
2018-02-19T08:38:35.314Z,1120
2018-02-19T08:39:44.879Z,1196
2018-02-19T08:40:53.900Z,1252
2018-02-19T08:42:02.613Z,1284
2018-02-19T08:43:12.604Z,1292
2018-02-19T08:44:21.876Z,1264
2018-02-19T08:45:31.201Z,1276
2018-02-19T08:46:40.709Z,1320
2018-02-19T08:47:49.974Z,1364
2018-02-19T08:48:59.014Z,1424
2018-02-19T08:50:08.869Z,1520
2018-02-19T08:51:17.656Z,1588
2018-02-19T08:52:26.427Z,1632
2018-02-19T08:53:35.476Z,1664
2018-02-19T08:54:44.480Z,1668
2018-02-19T08:55:53.274Z,1648
2018-02-19T08:57:01.996Z,1620
2018-02-19T08:58:10.706Z,1608
2018-02-19T08:59:20.238Z,1608
2018-02-19T09:00:29.473Z,1600
2018-02-19T09:01:38.730Z,1608
2018-02-19T09:02:47.697Z,1620
2018-02-19T09:03:56.424Z,1580
2018-02-19T09:05:05.681Z,1560
2018-02-19T09:06:15.443Z,1572
2018-02-19T09:07:24.749Z,1592
2018-02-19T09:08:34.550Z,1624
2018-02-19T09:09:43.534Z,1696
2018-02-19T09:10:52.815Z,1748
2018-02-19T09:12:02.038Z,1800
2018-02-19T09:13:11.615Z,1864
2018-02-19T09:14:20.613Z,1848
2018-02-19T09:15:29.599Z,1844
2018-02-19T09:16:38.327Z,1844
2018-02-19T09:17:47.607Z,1824
2018-02-19T09:18:56.866Z,1820
2018-02-19T09:20:05.592Z,1876
2018-02-19T09:21:15.165Z,1876
2018-02-19T09:22:24.406Z,1840
2018-02-19T09:23:33.393Z,1764
2018-02-19T09:24:42.619Z,1708
2018-02-19T09:25:51.862Z,1636
2018-02-19T09:27:00.868Z,1616
2018-02-19T09:28:10.107Z,1628
2018-02-19T09:29:19.380Z,1648
2018-02-19T09:30:28.678Z,1704
2018-02-19T09:31:37.666Z,1776
2018-02-19T09:32:46.885Z,1832
2018-02-19T09:33:55.908Z,1848
2018-02-19T09:35:04.873Z,1880
2018-02-19T09:36:14.800Z,1904
2018-02-19T09:37:25.591Z,1884
2018-02-19T09:38:35.504Z,1844
2018-02-19T09:39:45.755Z,1852
2018-02-19T09:40:55.001Z,1860
2018-02-19T09:42:04.573Z,1856
2018-02-19T09:43:13.573Z,1872
2018-02-19T09:44:22.291Z,1912
2018-02-19T09:45:31.564Z,1936
2018-02-19T09:46:41.095Z,1964
2018-02-19T09:47:50.122Z,1952
2018-02-19T09:48:59.705Z,1976
2018-02-19T09:50:08.728Z,2056
2018-02-19T09:51:17.725Z,2108
2018-02-19T09:52:26.970Z,2100
2018-02-19T09:53:35.956Z,2084
2018-02-19T09:54:45.208Z,2076
2018-02-19T09:55:54.271Z,2048
2018-02-19T09:57:03.596Z,1956
2018-02-19T09:58:12.550Z,1972
2018-02-19T09:59:21.242Z,1936
2018-02-19T10:00:30.734Z,2032
2018-02-19T10:01:39.481Z,2072
2018-02-19T10:02:48.190Z,2116
2018-02-19T10:03:57.143Z,2164
2018-02-19T10:05:06.346Z,2220
2018-02-19T10:06:16.110Z,2228
2018-02-19T10:07:25.859Z,2228
2018-02-19T10:08:35.083Z,2256
2018-02-19T10:09:44.284Z,2276
2018-02-19T10:10:53.279Z,2248
2018-02-19T10:12:02.246Z,2220
2018-02-19T10:13:12.549Z,2220
2018-02-19T10:14:21.715Z,2192
2018-02-19T10:15:31.463Z,2148
2018-02-19T10:16:40.712Z,2184
2018-02-19T10:17:49.666Z,2220
2018-02-19T10:18:59.205Z,2200
2018-02-19T10:20:09.193Z,2200
2018-02-19T10:21:18.174Z,2208
2018-02-19T10:22:27.403Z,2240
2018-02-19T10:23:36.862Z,2244
2018-02-19T10:24:46.551Z,2284
2018-02-19T10:25:55.964Z,2324
2018-02-19T10:27:04.754Z,2328
2018-02-19T10:28:13.985Z,2316
2018-02-19T10:29:23.456Z,2324
2018-02-19T10:30:32.664Z,2284
2018-02-19T10:31:41.705Z,2224
2018-02-19T10:32:51.206Z,2168
2018-02-19T10:34:00.197Z,2140
2018-02-19T10:35:09.721Z,2156
2018-02-19T10:36:19.222Z,2188
2018-02-19T10:37:28.703Z,2240
2018-02-19T10:38:39.022Z,2256
2018-02-19T10:39:48.528Z,2244
2018-02-19T10:40:58.019Z,2224
2018-02-19T10:42:07.112Z,2176
2018-02-19T10:43:16.331Z,2144
2018-02-19T10:44:25.323Z,2164
2018-02-19T10:45:35.020Z,2188
2018-02-19T10:46:43.984Z,2200
2018-02-19T10:47:53.486Z,2240
2018-02-19T10:49:02.736Z,2260
2018-02-19T10:50:11.948Z,2268
2018-02-19T10:51:20.914Z,2236
2018-02-19T10:52:29.602Z,2224
2018-02-19T10:53:38.852Z,2264
2018-02-19T10:54:47.533Z,2296
2018-02-19T10:55:56.503Z,2292
2018-02-19T10:57:05.718Z,2252
2018-02-19T10:58:14.937Z,2196
2018-02-19T10:59:23.639Z,2172
2018-02-19T11:00:32.622Z,2188
2018-02-19T11:01:41.855Z,2224
2018-02-19T11:02:51.380Z,2212
2018-02-19T11:04:00.462Z,2188
2018-02-19T11:05:09.192Z,2144
2018-02-19T11:06:18.105Z,2092
2018-02-19T11:07:27.095Z,2116
2018-02-19T11:08:36.854Z,2160
2018-02-19T11:09:46.450Z,2212
2018-02-19T11:10:55.459Z,2224
2018-02-19T11:12:05.204Z,2176
2018-02-19T11:13:14.229Z,2092
2018-02-19T11:14:24.080Z,2016
2018-02-19T11:15:33.287Z,2020
2018-02-19T11:16:42.336Z,2080
2018-02-19T11:17:51.307Z,2108
2018-02-19T11:19:00.071Z,2132
2018-02-19T11:20:09.313Z,2080
2018-02-19T11:21:18.628Z,2040
2018-02-19T11:22:27.597Z,2032
2018-02-19T11:23:36.592Z,2052
2018-02-19T11:24:45.291Z,2048
2018-02-19T11:25:54.524Z,2040
2018-02-19T11:27:04.098Z,2040
2018-02-19T11:28:13.072Z,2028
2018-02-19T11:29:22.295Z,2012
2018-02-19T11:30:31.783Z,2016
2018-02-19T11:31:40.768Z,2028
2018-02-19T11:32:49.748Z,2044
2018-02-19T11:33:58.724Z,2080
2018-02-19T11:35:07.972Z,2120
2018-02-19T11:36:17.204Z,2148
2018-02-19T11:37:26.713Z,2184
2018-02-19T11:38:35.510Z,2216
2018-02-19T11:39:44.514Z,2228
2018-02-19T11:40:53.761Z,2208
2018-02-19T11:42:02.976Z,2148
2018-02-19T11:43:12.205Z,2112
2018-02-19T11:44:21.185Z,2128
2018-02-19T11:45:30.417Z,2120
2018-02-19T11:46:39.377Z,2152
2018-02-19T11:47:48.640Z,2184
2018-02-19T11:48:57.597Z,2208
2018-02-19T11:50:06.293Z,2252
2018-02-19T11:51:15.573Z,2296
2018-02-19T11:52:24.525Z,2200
2018-02-19T11:53:34.044Z,2124
2018-02-19T11:54:43.618Z,2068
2018-02-19T11:55:52.595Z,1996
2018-02-19T11:57:01.537Z,1956
2018-02-19T11:58:11.040Z,1948
2018-02-19T11:59:20.555Z,1936
2018-02-19T12:00:29.782Z,1908
2018-02-19T12:01:38.767Z,1928
2018-02-19T12:02:48.128Z,2000
2018-02-19T12:03:57.607Z,2064
2018-02-19T12:05:07.123Z,2096
2018-02-19T12:06:16.707Z,2136
2018-02-19T12:07:25.950Z,2160
2018-02-19T12:08:34.906Z,2184
2018-02-19T12:09:43.884Z,2212
2018-02-19T12:10:52.828Z,2236
2018-02-19T12:12:01.786Z,2184
2018-02-19T12:13:10.745Z,2044
2018-02-19T12:14:20.280Z,1972
2018-02-19T12:15:29.488Z,1884
2018-02-19T12:16:38.713Z,1828
2018-02-19T12:17:47.749Z,1836
2018-02-19T12:18:56.963Z,1808
2018-02-19T12:20:05.924Z,1768
2018-02-19T12:21:14.876Z,1752
2018-02-19T12:22:23.561Z,1732
2018-02-19T12:23:32.811Z,1716
2018-02-19T12:24:41.493Z,1704
2018-02-19T12:25:50.990Z,1680
2018-02-19T12:27:00.458Z,1688
2018-02-19T12:28:09.156Z,1716
2018-02-19T12:29:18.373Z,1756
2018-02-19T12:30:27.312Z,1788
2018-02-19T12:31:36.538Z,1780
2018-02-19T12:32:45.480Z,1768
2018-02-19T12:33:54.440Z,1752
2018-02-19T12:35:03.745Z,1768
2018-02-19T12:36:12.794Z,1812
2018-02-19T12:37:22.294Z,1856
2018-02-19T12:38:31.311Z,1864
2018-02-19T12:39:40.261Z,1856
2018-02-19T12:40:49.210Z,1852
2018-02-19T12:41:58.714Z,1824
2018-02-19T12:43:07.664Z,1768
2018-02-19T12:44:16.347Z,1716
2018-02-19T12:45:25.351Z,1660
2018-02-19T12:46:35.130Z,1616
2018-02-19T12:47:44.638Z,1588
2018-02-19T12:48:53.602Z,1572
2018-02-19T12:50:02.837Z,1548
2018-02-19T12:51:12.069Z,1524
2018-02-19T12:52:21.082Z,1500
2018-02-19T12:53:30.144Z,1472
2018-02-19T12:54:39.411Z,1424
2018-02-19T12:55:48.642Z,1376
2018-02-19T12:56:57.369Z,1316
2018-02-19T12:58:06.340Z,1276
2018-02-19T12:59:15.015Z,1256
2018-02-19T13:00:24.813Z,1236
2018-02-19T13:01:33.518Z,1216
2018-02-19T13:02:42.798Z,1196
2018-02-19T13:03:51.774Z,1156
2018-02-19T13:05:00.455Z,1124
2018-02-19T13:06:09.455Z,1108
2018-02-19T13:07:18.404Z,1096
2018-02-19T13:08:27.892Z,1072
2018-02-19T13:09:36.832Z,1068
2018-02-19T13:10:46.798Z,1044
2018-02-19T13:11:56.011Z,1044
2018-02-19T13:13:04.977Z,1048
2018-02-19T13:14:14.441Z,1032
2018-02-19T13:15:23.147Z,1044
2018-02-19T13:16:32.657Z,1064
2018-02-19T13:17:41.623Z,1068
2018-02-19T13:18:50.594Z,1044
2018-02-19T13:19:59.286Z,1044
2018-02-19T13:21:08.650Z,1048
2018-02-19T13:22:17.945Z,1044
2018-02-19T13:23:26.985Z,1060
2018-02-19T13:24:35.932Z,1076
2018-02-19T13:25:45.687Z,1088
2018-02-19T13:26:55.220Z,1112
2018-02-19T13:28:04.458Z,1104
2018-02-19T13:29:13.493Z,1096
2018-02-19T13:30:22.180Z,1092
2018-02-19T13:31:31.424Z,1096
2018-02-19T13:32:40.997Z,1116
2018-02-19T13:33:50.533Z,1120
2018-02-19T13:34:59.514Z,1136
2018-02-19T13:36:09.147Z,1160
2018-02-19T13:37:19.096Z,1192
2018-02-19T13:38:28.082Z,1212
2018-02-19T13:39:37.378Z,1264
2018-02-19T13:40:46.344Z,1332
2018-02-19T13:41:55.321Z,1396
2018-02-19T13:43:04.277Z,1412
2018-02-19T13:44:13.223Z,1416
2018-02-19T13:45:21.966Z,1428
2018-02-19T13:46:30.980Z,1424
2018-02-19T13:47:40.461Z,1440
2018-02-19T13:48:49.437Z,1384
2018-02-19T13:49:58.940Z,1316
2018-02-19T13:51:07.958Z,1304
2018-02-19T13:52:17.036Z,1372
2018-02-19T13:53:26.019Z,1444
2018-02-19T13:54:35.792Z,1480
2018-02-19T13:55:45.028Z,1536
2018-02-19T13:56:54.557Z,1576
2018-02-19T13:58:04.077Z,1592
2018-02-19T13:59:12.809Z,1624
2018-02-19T14:00:22.356Z,1680
2018-02-19T14:01:31.647Z,1732
2018-02-19T14:02:40.966Z,1772
2018-02-19T14:03:49.937Z,1764
2018-02-19T14:04:59.480Z,1724
2018-02-19T14:06:08.792Z,1652
2018-02-19T14:07:18.425Z,1572
2018-02-19T14:08:28.273Z,1528
2018-02-19T14:09:37.311Z,1488
2018-02-19T14:10:46.504Z,1464
2018-02-19T14:11:55.763Z,1472
2018-02-19T14:13:04.770Z,1496
2018-02-19T14:14:14.095Z,1532
2018-02-19T14:15:23.129Z,1536
2018-02-19T14:16:32.124Z,1516
2018-02-19T14:17:40.895Z,1496
2018-02-19T14:18:49.637Z,1444
2018-02-19T14:19:58.649Z,1372
2018-02-19T14:21:07.976Z,1308
2018-02-19T14:22:16.990Z,1244
2018-02-19T14:23:26.566Z,1180
2018-02-19T14:24:35.652Z,1144
2018-02-19T14:25:45.167Z,1132
2018-02-19T14:26:54.036Z,1116
2018-02-19T14:28:02.848Z,1104
2018-02-19T14:29:12.118Z,1088
2018-02-19T14:30:20.929Z,1068
2018-02-19T14:31:30.201Z,1040
2018-02-19T14:32:39.486Z,1012
2018-02-19T14:33:48.465Z,968
2018-02-19T14:34:57.242Z,952
2018-02-19T14:36:06.261Z,936
2018-02-19T14:37:15.261Z,916
2018-02-19T14:38:24.513Z,900
2018-02-19T14:39:34.082Z,888
2018-02-19T14:40:43.107Z,880
2018-02-19T14:41:52.347Z,864
2018-02-19T14:43:01.641Z,856
2018-02-19T14:44:10.681Z,848
2018-02-19T14:45:20.187Z,836
2018-02-19T14:46:28.988Z,828
2018-02-19T14:47:37.681Z,828
2018-02-19T14:48:46.442Z,824
2018-02-19T14:49:55.720Z,820
2018-02-19T14:51:05.261Z,828
2018-02-19T14:52:14.007Z,828
2018-02-19T14:53:22.791Z,824
2018-02-19T14:54:31.807Z,820
2018-02-19T14:55:40.556Z,824
2018-02-19T14:56:49.565Z,832
2018-02-19T14:57:58.822Z,832
2018-02-19T14:59:07.778Z,828
2018-02-19T15:00:17.010Z,812
2018-02-19T15:01:26.232Z,788
2018-02-19T15:02:35.428Z,764
2018-02-19T15:03:44.908Z,744
2018-02-19T15:04:54.669Z,728
2018-02-19T15:06:03.658Z,716
2018-02-19T15:07:13.193Z,696
2018-02-19T15:08:21.907Z,676
2018-02-19T15:09:31.151Z,652
2018-02-19T15:10:43.458Z,636
2018-02-19T15:11:53.951Z,624
2018-02-19T15:13:03.491Z,620
2018-02-19T15:14:12.725Z,620
2018-02-19T15:15:22.841Z,616
2018-02-19T15:16:32.162Z,612
2018-02-19T15:17:41.696Z,620
2018-02-19T15:18:50.656Z,624
2018-02-19T15:20:00.189Z,624
2018-02-19T15:21:09.688Z,624
2018-02-19T15:22:19.238Z,624
2018-02-19T15:23:28.473Z,636
2018-02-19T15:24:37.727Z,620
2018-02-19T15:25:46.651Z,588
2018-02-19T15:26:55.600Z,556
2018-02-19T15:28:05.082Z,516
2018-02-19T15:29:14.306Z,488
2018-02-19T15:30:23.176Z,460
2018-02-19T15:31:32.590Z,440
2018-02-19T15:32:42.694Z,424
2018-02-19T15:33:51.409Z,412
2018-02-19T15:35:00.505Z,404
2018-02-19T15:36:09.325Z,400
2018-02-19T15:37:19.331Z,400
2018-02-19T15:38:28.138Z,400
2018-02-19T15:39:37.097Z,404
2018-02-19T15:40:46.350Z,412
2018-02-19T15:41:55.560Z,412
2018-02-19T15:43:05.295Z,416
2018-02-19T15:44:14.032Z,412
2018-02-19T15:45:23.294Z,408
2018-02-19T15:46:31.994Z,408
2018-02-19T15:47:40.938Z,404
2018-02-19T15:48:49.918Z,396
2018-02-19T15:49:58.638Z,392
2018-02-19T15:51:07.599Z,380
2018-02-19T15:52:16.580Z,376
2018-02-19T15:53:25.527Z,372
2018-02-19T15:54:34.493Z,368
2018-02-19T15:55:43.489Z,364
2018-02-19T15:56:52.705Z,352
2018-02-19T15:58:01.751Z,340
2018-02-19T15:59:10.987Z,332
2018-02-19T16:00:20.321Z,324
2018-02-19T16:01:29.457Z,312
2018-02-19T16:02:39.317Z,304
2018-02-19T16:03:48.001Z,296
2018-02-19T16:04:57.232Z,288
2018-02-19T16:06:06.461Z,280
2018-02-19T16:07:15.536Z,272